createdAt,value
2019-04-29T00:01:45.948Z,70.63
2019-04-29T00:04:15.011Z,71.28
2019-04-29T00:06:44.493Z,71.17
2019-04-29T00:09:16.686Z,71.06
2019-04-29T00:11:45.776Z,71.35
2019-04-29T00:14:15.136Z,71.28
2019-04-29T00:17:02.966Z,70.47
2019-04-29T00:20:03.575Z,70.02
2019-04-29T00:22:32.684Z,69.54
2019-04-29T00:25:01.747Z,69.72
2019-04-29T00:27:31.158Z,70.91
2019-04-29T00:30:00.243Z,71.34
2019-04-29T00:32:29.350Z,72.04
2019-04-29T00:34:58.423Z,72.60
2019-04-29T00:37:36.678Z,73.04
2019-04-29T00:40:25.036Z,73.19
2019-04-29T00:43:01.369Z,74.37
2019-04-29T00:45:30.838Z,73.08
2019-04-29T00:47:59.888Z,73.86
2019-04-29T00:50:28.968Z,72.99
2019-04-29T00:52:58.368Z,72.37
2019-04-29T00:55:29.306Z,72.97
2019-04-29T00:57:58.768Z,73.07
2019-04-29T01:00:39.441Z,72.51
2019-04-29T01:03:08.773Z,72.29
2019-04-29T01:05:38.324Z,72.24
2019-04-29T01:08:07.374Z,72.33
2019-04-29T01:10:36.533Z,71.91
2019-04-29T01:13:05.872Z,71.67
2019-04-29T01:15:35.004Z,71.46
2019-04-29T01:18:06.535Z,70.91
2019-04-29T01:20:35.606Z,70.96
2019-04-29T01:23:04.669Z,70.65
2019-04-29T01:25:35.607Z,70.19
2019-04-29T01:28:17.396Z,69.92
2019-04-29T01:31:07.511Z,69.98
2019-04-29T01:33:36.567Z,70.32
2019-04-29T01:36:46.113Z,70.24
2019-04-29T01:39:15.432Z,70.31
2019-04-29T01:42:12.844Z,70.63
2019-04-29T01:44:41.904Z,70.75
2019-04-29T01:47:11.270Z,71.20
2019-04-29T01:49:40.351Z,71.34
2019-04-29T01:52:09.417Z,71.77
2019-04-29T01:54:38.740Z,71.71
2019-04-29T01:57:07.807Z,72.23
2019-04-29T01:59:36.893Z,72.08
2019-04-29T02:02:09.384Z,72.02
2019-04-29T02:04:38.464Z,71.69
2019-04-29T02:07:07.495Z,71.39
2019-04-29T02:09:41.647Z,71.66
2019-04-29T02:12:10.804Z,71.10
2019-04-29T02:14:39.854Z,71.55
2019-04-29T02:17:10.221Z,71.55
2019-04-29T02:19:39.288Z,71.67
2019-04-29T02:22:27.301Z,72.23
2019-04-29T02:25:06.799Z,72.55
2019-04-29T02:27:35.866Z,74.30
2019-04-29T02:30:09.082Z,73.85
2019-04-29T02:32:38.176Z,73.59
2019-04-29T02:35:07.349Z,73.42
2019-04-29T02:37:39.527Z,73.67
2019-04-29T02:40:14.625Z,73.88
2019-04-29T02:43:14.655Z,73.42
2019-04-29T02:45:43.786Z,73.17
2019-04-29T02:48:13.121Z,72.84
2019-04-29T02:50:42.265Z,72.76
2019-04-29T02:53:11.318Z,72.35
2019-04-29T02:55:45.006Z,72.58
2019-04-29T02:58:39.270Z,73.13
2019-04-29T03:01:26.153Z,72.74
2019-04-29T03:04:05.245Z,72.27
2019-04-29T03:06:34.296Z,72.55
2019-04-29T03:09:04.117Z,72.43
2019-04-29T03:11:33.267Z,72.56
2019-04-29T03:14:05.357Z,72.53
2019-04-29T03:16:34.797Z,73.08
2019-04-29T03:19:08.365Z,73.24
2019-04-29T03:21:43.340Z,73.00
2019-04-29T03:24:12.449Z,72.71
2019-04-29T03:26:41.528Z,72.64
2019-04-29T03:29:22.149Z,72.57
2019-04-29T03:31:52.478Z,72.85
2019-04-29T03:34:21.931Z,72.84
2019-04-29T03:36:50.967Z,72.58
2019-04-29T03:39:20.017Z,72.38
2019-04-29T03:41:49.341Z,72.71
2019-04-29T03:44:18.567Z,72.93
2019-04-29T03:46:47.642Z,73.29
2019-04-29T03:49:16.963Z,73.23
2019-04-29T03:51:46.040Z,73.21
2019-04-29T03:54:15.117Z,73.42
2019-04-29T03:56:45.204Z,73.44
2019-04-29T03:59:14.270Z,73.22
2019-04-29T04:01:54.135Z,73.37
2019-04-29T04:04:40.861Z,73.29
2019-04-29T04:07:31.445Z,73.87
2019-04-29T04:10:00.916Z,74.14
2019-04-29T04:12:32.629Z,73.71
2019-04-29T04:15:01.829Z,73.94
2019-04-29T04:17:42.568Z,73.87
2019-04-29T04:20:16.118Z,73.90
2019-04-29T04:22:48.340Z,74.22
2019-04-29T04:25:18.168Z,73.94
2019-04-29T04:27:58.752Z,74.41
2019-04-29T04:30:28.657Z,74.82
2019-04-29T04:32:57.877Z,74.52
2019-04-29T04:35:26.910Z,75.85
2019-04-29T04:37:55.959Z,75.36
2019-04-29T04:40:31.175Z,75.03
2019-04-29T04:43:00.484Z,74.20
2019-04-29T04:45:30.437Z,74.25
2019-04-29T04:47:59.507Z,74.21
2019-04-29T04:50:28.827Z,75.67
2019-04-29T04:52:57.879Z,76.11
2019-04-29T04:55:29.495Z,76.08
2019-04-29T04:57:58.877Z,76.37
2019-04-29T05:00:29.636Z,75.70
2019-04-29T05:02:58.725Z,75.57
2019-04-29T05:05:28.070Z,75.03
2019-04-29T05:07:57.147Z,74.58
2019-04-29T05:10:26.339Z,74.16
2019-04-29T05:12:55.645Z,73.89
2019-04-29T05:15:25.130Z,73.25
2019-04-29T05:17:54.716Z,72.73
2019-04-29T05:20:24.043Z,72.81
2019-04-29T05:23:00.840Z,72.28
2019-04-29T05:25:32.340Z,72.53
2019-04-29T05:28:05.028Z,72.74
2019-04-29T05:30:34.138Z,72.34
2019-04-29T05:33:03.274Z,72.53
2019-04-29T05:35:51.285Z,72.61
2019-04-29T05:38:27.319Z,72.66
2019-04-29T05:40:56.958Z,72.52
2019-04-29T05:43:53.343Z,72.26
2019-04-29T05:46:37.307Z,71.83
2019-04-29T05:49:09.097Z,71.92
2019-04-29T05:51:57.463Z,72.07
2019-04-29T05:54:31.117Z,72.10
2019-04-29T05:56:57.951Z,72.18
2019-04-29T05:59:27.056Z,73.07
2019-04-29T06:01:56.140Z,72.90
2019-04-29T06:04:28.667Z,73.00
2019-04-29T06:06:57.747Z,73.18
2019-04-29T06:09:30.007Z,72.71
2019-04-29T06:11:59.485Z,73.09
2019-04-29T06:14:32.143Z,72.59
2019-04-29T06:17:02.833Z,72.51
2019-04-29T06:19:38.871Z,71.69
2019-04-29T06:22:08.815Z,71.36
2019-04-29T06:24:41.037Z,70.39
2019-04-29T06:27:11.681Z,69.52
2019-04-29T06:29:40.804Z,69.57
2019-04-29T06:32:10.199Z,68.36
2019-04-29T06:34:41.617Z,68.21
2019-04-29T06:37:10.831Z,68.26
2019-04-29T06:39:40.276Z,67.94
2019-04-29T06:42:09.417Z,67.94
2019-04-29T06:44:38.585Z,68.24
2019-04-29T06:47:07.942Z,67.40
2019-04-29T06:49:37.152Z,67.63
2019-04-29T06:52:06.247Z,68.20
2019-04-29T06:54:35.319Z,68.21
2019-04-29T06:57:04.406Z,68.36
2019-04-29T06:59:33.940Z,67.72
2019-04-29T07:02:09.403Z,67.51
2019-04-29T07:04:38.706Z,68.60
2019-04-29T07:07:07.178Z,67.87
2019-04-29T07:09:36.266Z,67.84
2019-04-29T07:12:12.508Z,66.65
2019-04-29T07:14:39.538Z,66.34
2019-04-29T07:17:08.617Z,66.19
2019-04-29T07:19:37.755Z,65.88
2019-04-29T07:22:07.256Z,65.73
2019-04-29T07:24:36.374Z,65.98
2019-04-29T07:27:06.939Z,65.54
2019-04-29T07:29:38.130Z,65.96
2019-04-29T07:32:09.341Z,65.19
2019-04-29T07:34:39.561Z,64.86
2019-04-29T07:37:09.071Z,64.91
2019-04-29T07:39:38.186Z,64.61
2019-04-29T07:42:07.296Z,64.71
2019-04-29T07:44:48.807Z,64.16
2019-04-29T07:47:16.988Z,64.72
2019-04-29T07:49:47.391Z,64.62
2019-04-29T07:52:17.914Z,63.92
2019-04-29T07:54:48.257Z,64.09
2019-04-29T07:57:18.239Z,63.55
2019-04-29T07:59:47.404Z,63.53
2019-04-29T08:02:16.506Z,64.38
2019-04-29T08:04:45.945Z,63.33
2019-04-29T08:07:15.169Z,62.61
2019-04-29T08:09:45.354Z,63.22
2019-04-29T08:12:15.287Z,62.67
2019-04-29T08:14:45.061Z,62.42
2019-04-29T08:17:14.140Z,61.89
2019-04-29T08:19:43.555Z,62.39
2019-04-29T08:22:15.462Z,62.33
2019-04-29T08:24:45.850Z,62.32
2019-04-29T08:27:14.585Z,62.01
2019-04-29T08:29:43.702Z,61.59
2019-04-29T08:32:19.764Z,61.26
2019-04-29T08:34:53.753Z,60.69
2019-04-29T08:37:25.020Z,60.69
2019-04-29T08:40:14.809Z,60.54
2019-04-29T08:42:28.811Z,60.38
2019-04-29T08:45:19.664Z,60.06
2019-04-29T08:47:49.626Z,59.95
2019-04-29T08:50:18.689Z,60.38
2019-04-29T08:52:48.059Z,60.03
2019-04-29T08:55:19.463Z,60.18
2019-04-29T08:57:48.627Z,59.48
2019-04-29T09:00:18.122Z,58.65
2019-04-29T09:02:49.230Z,58.96
2019-04-29T09:05:17.971Z,58.74
2019-04-29T09:07:47.557Z,56.85
2019-04-29T09:10:17.143Z,57.31
2019-04-29T09:12:46.262Z,57.04
2019-04-29T09:15:17.788Z,56.35
2019-04-29T09:17:47.048Z,55.70
2019-04-29T09:20:17.092Z,57.16
2019-04-29T09:22:57.319Z,57.37
2019-04-29T09:26:01.730Z,56.52
2019-04-29T09:28:27.233Z,56.63
2019-04-29T09:30:52.740Z,55.83
2019-04-29T09:33:22.092Z,56.62
2019-04-29T09:35:51.200Z,56.43
2019-04-29T09:38:20.305Z,56.10
2019-04-29T09:40:59.613Z,55.51
2019-04-29T09:43:34.574Z,54.82
2019-04-29T09:46:09.604Z,54.58
2019-04-29T09:48:38.678Z,53.93
2019-04-29T09:51:17.185Z,54.26
2019-04-29T09:53:38.846Z,54.27
2019-04-29T09:56:08.069Z,53.88
2019-04-29T09:58:37.228Z,54.23
2019-04-29T10:01:26.036Z,55.04
2019-04-29T10:04:26.309Z,55.11
2019-04-29T10:07:05.897Z,54.46
2019-04-29T10:09:35.366Z,53.42
2019-04-29T10:12:05.414Z,52.73
2019-04-29T10:14:35.029Z,53.14
2019-04-29T10:17:21.760Z,51.97
2019-04-29T10:19:59.015Z,51.65
2019-04-29T10:22:28.358Z,52.24
2019-04-29T10:24:57.479Z,51.10
2019-04-29T10:27:26.534Z,50.46
2019-04-29T10:29:57.122Z,49.65
2019-04-29T10:32:26.599Z,49.47
2019-04-29T10:34:55.757Z,49.73
2019-04-29T10:37:31.331Z,49.55
2019-04-29T10:40:11.477Z,49.57
2019-04-29T10:42:43.641Z,49.15
2019-04-29T10:45:34.598Z,49.36
2019-04-29T10:48:16.567Z,49.01
2019-04-29T10:50:52.013Z,48.40
2019-04-29T10:53:18.377Z,47.83
2019-04-29T10:55:47.777Z,48.40
2019-04-29T10:58:22.042Z,48.33
2019-04-29T11:01:31.817Z,46.54
2019-04-29T11:04:02.689Z,46.58
2019-04-29T11:06:35.936Z,46.68
2019-04-29T11:09:28.707Z,45.19
2019-04-29T11:11:57.801Z,44.77
2019-04-29T11:14:27.239Z,43.79
2019-04-29T11:16:56.465Z,43.74
2019-04-29T11:19:25.782Z,42.68
2019-04-29T11:21:55.083Z,42.30
2019-04-29T11:24:46.123Z,40.29
2019-04-29T11:27:22.576Z,41.80
2019-04-29T11:29:51.671Z,41.96
2019-04-29T11:32:31.125Z,41.83
2019-04-29T11:35:13.957Z,41.97
2019-04-29T11:37:43.089Z,41.35
2019-04-29T11:40:12.603Z,40.44
2019-04-29T11:42:42.073Z,40.21
2019-04-29T11:45:13.539Z,39.77
2019-04-29T11:47:42.256Z,39.48
2019-04-29T11:50:26.825Z,37.39
2019-04-29T11:52:55.674Z,39.44
2019-04-29T11:55:24.747Z,39.91
2019-04-29T11:58:04.127Z,39.67
2019-04-29T12:00:58.448Z,40.28
2019-04-29T12:03:37.276Z,40.07
2019-04-29T12:06:10.890Z,40.03
2019-04-29T12:08:40.152Z,40.29
2019-04-29T12:11:09.529Z,39.77
2019-04-29T12:13:45.219Z,39.30
2019-04-29T12:16:19.726Z,38.53
2019-04-29T12:18:56.136Z,38.63
2019-04-29T12:21:33.442Z,38.08
2019-04-29T12:24:04.498Z,38.10
2019-04-29T12:26:34.998Z,38.85
2019-04-29T12:29:04.526Z,37.90
2019-04-29T12:31:51.188Z,38.27
2019-04-29T12:34:45.110Z,38.16
2019-04-29T12:37:52.018Z,38.76
2019-04-29T12:40:38.985Z,39.39
2019-04-29T12:43:26.145Z,39.61
2019-04-29T12:46:05.916Z,40.49
2019-04-29T12:48:38.593Z,40.53
2019-04-29T12:51:06.417Z,39.96
2019-04-29T12:53:35.494Z,40.39
2019-04-29T12:56:11.267Z,40.57
2019-04-29T12:58:38.903Z,40.55
2019-04-29T13:01:19.741Z,40.21
2019-04-29T13:04:05.322Z,40.25
2019-04-29T13:06:55.297Z,40.31
2019-04-29T13:09:35.093Z,40.29
2019-04-29T13:12:17.650Z,39.69
2019-04-29T13:14:39.132Z,39.82
2019-04-29T13:17:22.564Z,39.76
2019-04-29T13:20:02.172Z,39.54
2019-04-29T13:22:29.482Z,39.47
2019-04-29T13:24:58.943Z,38.82
2019-04-29T13:27:28.131Z,38.78
2019-04-29T13:29:57.243Z,38.82
2019-04-29T13:32:29.715Z,39.22
2019-04-29T13:35:05.283Z,39.55
2019-04-29T13:37:32.206Z,39.44
2019-04-29T13:40:05.102Z,38.93
2019-04-29T13:42:37.440Z,38.32
2019-04-29T13:45:13.391Z,38.66
2019-04-29T13:48:16.184Z,38.59
2019-04-29T13:50:52.204Z,38.60
2019-04-29T13:53:22.072Z,38.96
2019-04-29T13:56:10.024Z,39.36
2019-04-29T13:58:27.152Z,38.54
2019-04-29T14:01:22.173Z,38.20
2019-04-29T14:03:49.941Z,38.79
2019-04-29T14:06:19.934Z,39.32
2019-04-29T14:08:50.285Z,38.14
2019-04-29T14:11:21.941Z,36.75
2019-04-29T14:13:50.229Z,36.92
2019-04-29T14:16:19.600Z,37.34
2019-04-29T14:18:50.023Z,37.13
2019-04-29T14:21:19.338Z,37.04
2019-04-29T14:23:48.769Z,37.73
2019-04-29T14:26:17.870Z,37.84
2019-04-29T14:28:47.317Z,37.37
2019-04-29T14:31:18.619Z,37.33
2019-04-29T14:33:55.808Z,37.17
2019-04-29T14:36:26.334Z,37.77
2019-04-29T14:38:55.661Z,37.76
2019-04-29T14:41:25.729Z,38.18
2019-04-29T14:44:13.977Z,38.52
2019-04-29T14:47:08.130Z,39.23
2019-04-29T14:49:48.734Z,40.56
2019-04-29T14:52:23.686Z,40.28
2019-04-29T14:54:54.976Z,40.31
2019-04-29T14:57:24.788Z,41.71
2019-04-29T14:59:54.140Z,41.48
2019-04-29T15:02:25.443Z,40.78
2019-04-29T15:04:57.461Z,41.94
2019-04-29T15:07:29.177Z,41.60
2019-04-29T15:09:59.620Z,44.29
2019-04-29T15:13:18.350Z,44.26
2019-04-29T15:16:04.444Z,43.29
2019-04-29T15:18:50.118Z,41.83
2019-04-29T15:21:45.669Z,40.99
2019-04-29T15:24:17.411Z,41.31
2019-04-29T15:26:45.520Z,43.58
2019-04-29T15:29:14.550Z,47.55
2019-04-29T15:31:47.072Z,48.85
2019-04-29T15:34:15.112Z,48.31
2019-04-29T15:36:44.184Z,49.73
2019-04-29T15:39:13.820Z,52.99
2019-04-29T15:41:43.481Z,56.01
2019-04-29T15:44:18.831Z,59.31
2019-04-29T15:46:47.109Z,62.11
2019-04-29T15:49:14.787Z,61.55
2019-04-29T15:51:48.667Z,63.18
2019-04-29T15:54:15.960Z,63.86
2019-04-29T15:57:15.484Z,64.15
2019-04-29T15:59:48.865Z,64.33
2019-04-29T16:02:12.799Z,64.84
2019-04-29T16:04:50.962Z,64.71
2019-04-29T16:07:55.727Z,65.54
2019-04-29T16:10:59.376Z,65.79
2019-04-29T16:13:30.285Z,65.37
2019-04-29T16:16:07.120Z,65.22
2019-04-29T16:18:37.486Z,64.54
2019-04-29T16:21:25.136Z,64.40
2019-04-29T16:23:57.715Z,66.27
2019-04-29T16:26:30.263Z,63.86
2019-04-29T16:28:57.820Z,64.96
2019-04-29T16:31:26.878Z,64.74
2019-04-29T16:34:11.278Z,64.67
2019-04-29T16:36:54.590Z,65.04
2019-04-29T16:39:23.785Z,67.01
2019-04-29T16:42:19.886Z,65.74
2019-04-29T16:44:59.822Z,64.46
2019-04-29T16:47:29.652Z,62.80
2019-04-29T16:50:04.924Z,62.67
2019-04-29T16:52:30.340Z,62.03
2019-04-29T16:55:04.006Z,61.80
2019-04-29T16:57:32.329Z,61.53
2019-04-29T17:00:06.455Z,61.77
2019-04-29T17:02:36.879Z,61.79
2019-04-29T17:05:12.312Z,61.78
2019-04-29T17:07:42.022Z,62.43
2019-04-29T17:10:38.445Z,63.07
2019-04-29T17:13:16.716Z,63.35
2019-04-29T17:15:44.583Z,64.97
2019-04-29T17:18:12.537Z,64.00
2019-04-29T17:20:42.168Z,63.02
2019-04-29T17:23:11.460Z,64.14
2019-04-29T17:25:40.870Z,65.68
2019-04-29T17:28:28.970Z,65.80
2019-04-29T17:31:14.462Z,66.83
2019-04-29T17:33:54.329Z,66.69
2019-04-29T17:36:25.778Z,67.52
2019-04-29T17:38:55.773Z,69.21
2019-04-29T17:41:25.151Z,69.23
2019-04-29T17:44:18.699Z,69.51
2019-04-29T17:47:07.066Z,68.64
2019-04-29T17:49:55.179Z,69.99
2019-04-29T17:52:29.443Z,70.64
2019-04-29T17:55:06.485Z,69.84
2019-04-29T17:57:46.818Z,72.72
2019-04-29T18:00:42.198Z,73.12
2019-04-29T18:03:25.202Z,72.81
2019-04-29T18:06:05.552Z,73.25
2019-04-29T18:09:02.557Z,72.95
2019-04-29T18:11:31.989Z,73.23
2019-04-29T18:14:02.995Z,73.62
2019-04-29T18:16:39.527Z,73.50
2019-04-29T18:19:17.498Z,73.62
2019-04-29T18:22:07.275Z,73.42
2019-04-29T18:25:13.357Z,74.63
2019-04-29T18:27:44.986Z,74.72
2019-04-29T18:30:16.331Z,74.80
2019-04-29T18:32:46.598Z,73.77
2019-04-29T18:35:18.479Z,73.91
2019-04-29T18:37:48.000Z,73.60
2019-04-29T18:40:17.847Z,73.20
2019-04-29T18:42:48.667Z,72.66
2019-04-29T18:45:18.128Z,72.78
2019-04-29T18:47:47.764Z,74.33
2019-04-29T18:50:17.506Z,73.84
2019-04-29T18:52:46.871Z,73.33
2019-04-29T18:55:19.757Z,73.50
2019-04-29T18:57:49.603Z,75.17
2019-04-29T19:00:21.971Z,75.06
2019-04-29T19:02:57.049Z,75.56
2019-04-29T19:05:41.740Z,75.87
2019-04-29T19:08:14.777Z,76.00
2019-04-29T19:10:42.740Z,76.83
2019-04-29T19:13:14.185Z,77.75
2019-04-29T19:15:46.949Z,77.32
2019-04-29T19:18:17.417Z,75.68
2019-04-29T19:20:52.484Z,75.27
2019-04-29T19:23:22.421Z,76.32
2019-04-29T19:25:50.476Z,76.22
2019-04-29T19:28:29.552Z,76.62
2019-04-29T19:30:50.965Z,77.87
2019-04-29T19:33:22.745Z,77.05
2019-04-29T19:35:52.100Z,77.33
2019-04-29T19:38:21.566Z,78.33
2019-04-29T19:40:51.240Z,78.31
2019-04-29T19:43:21.884Z,78.93
2019-04-29T19:45:52.035Z,79.17
2019-04-29T19:48:26.557Z,78.73
2019-04-29T19:51:14.049Z,78.74
2019-04-29T19:53:25.148Z,79.04
2019-04-29T19:56:02.188Z,78.90
2019-04-29T19:58:29.796Z,78.43
2019-04-29T20:01:10.736Z,76.98
2019-04-29T20:03:37.676Z,77.80
2019-04-29T20:06:09.487Z,76.72
2019-04-29T20:08:53.185Z,75.56
2019-04-29T20:11:14.296Z,78.05
2019-04-29T20:13:42.182Z,78.25
2019-04-29T20:16:43.199Z,77.62
2019-04-29T20:19:28.889Z,79.10
2019-04-29T20:22:00.440Z,81.15
2019-04-29T20:24:30.046Z,81.47
2019-04-29T20:26:59.372Z,81.55
2019-04-29T20:29:33.842Z,81.55
2019-04-29T20:32:00.035Z,81.14
2019-04-29T20:34:29.291Z,81.52
2019-04-29T20:36:58.564Z,81.12
2019-04-29T20:39:28.179Z,81.51
2019-04-29T20:42:01.051Z,82.77
2019-04-29T20:44:28.496Z,81.65
2019-04-29T20:47:17.053Z,81.34
2019-04-29T20:49:30.948Z,80.22
2019-04-29T20:52:07.869Z,80.26
2019-04-29T20:54:37.609Z,79.56
2019-04-29T20:57:17.644Z,79.53
2019-04-29T20:59:41.841Z,79.66
2019-04-29T21:02:12.659Z,81.05
2019-04-29T21:04:46.308Z,81.18
2019-04-29T21:07:10.838Z,80.93
2019-04-29T21:09:40.450Z,80.40
2019-04-29T21:12:39.765Z,80.82
2019-04-29T21:15:16.200Z,81.05
2019-04-29T21:17:45.486Z,80.44
2019-04-29T21:20:15.492Z,80.72
2019-04-29T21:22:45.557Z,79.86
2019-04-29T21:25:14.905Z,79.86
2019-04-29T21:27:47.051Z,78.94
2019-04-29T21:30:16.590Z,79.29
2019-04-29T21:32:45.738Z,79.69
2019-04-29T21:35:25.025Z,79.44
2019-04-29T21:38:23.761Z,79.63
2019-04-29T21:40:59.608Z,78.77
2019-04-29T21:43:29.828Z,78.28
2019-04-29T21:45:59.461Z,78.41
2019-04-29T21:48:33.494Z,77.88
2019-04-29T21:50:59.468Z,77.75
2019-04-29T21:53:31.640Z,78.65
2019-04-29T21:56:06.356Z,78.41
2019-04-29T21:58:32.977Z,78.30
2019-04-29T22:01:01.999Z,78.06
2019-04-29T22:03:31.244Z,78.65
2019-04-29T22:06:00.518Z,79.00
2019-04-29T22:08:48.585Z,79.54
2019-04-29T22:11:17.761Z,79.49
2019-04-29T22:13:47.222Z,79.33
2019-04-29T22:16:17.285Z,79.04
2019-04-29T22:18:51.791Z,78.95
2019-04-29T22:21:21.896Z,80.26
2019-04-29T22:23:50.929Z,79.67
2019-04-29T22:26:23.446Z,79.68
2019-04-29T22:28:53.406Z,79.86
2019-04-29T22:31:26.933Z,79.31
2019-04-29T22:33:53.250Z,78.85
2019-04-29T22:36:24.921Z,79.02
2019-04-29T22:38:55.715Z,79.29
2019-04-29T22:41:48.685Z,79.03
2019-04-29T22:44:21.796Z,78.74
2019-04-29T22:46:49.268Z,79.66
2019-04-29T22:49:24.445Z,79.03
2019-04-29T22:51:54.626Z,79.59
2019-04-29T22:54:22.108Z,79.21
2019-04-29T22:56:56.010Z,78.45
2019-04-29T22:59:25.348Z,78.84
2019-04-29T23:01:55.675Z,79.55
2019-04-29T23:04:25.008Z,79.38
2019-04-29T23:06:54.343Z,80.16
2019-04-29T23:09:23.833Z,79.34
2019-04-29T23:11:52.905Z,79.64
2019-04-29T23:14:21.996Z,80.36
2019-04-29T23:16:51.426Z,80.08
2019-04-29T23:19:20.510Z,80.35
2019-04-29T23:22:22.633Z,80.37
2019-04-29T23:24:58.790Z,80.23
2019-04-29T23:27:27.897Z,80.24
2019-04-29T23:29:58.413Z,80.33
2019-04-29T23:32:27.448Z,80.04
2019-04-29T23:34:57.233Z,80.05
2019-04-29T23:37:29.451Z,81.18
2019-04-29T23:39:58.572Z,81.18
2019-04-29T23:42:27.666Z,81.12
2019-04-29T23:44:57.286Z,80.99
2019-04-29T23:47:26.320Z,80.57
2019-04-29T23:49:55.392Z,80.25
2019-04-29T23:52:26.806Z,80.77
2019-04-29T23:54:55.579Z,80.59
2019-04-29T23:57:37.009Z,80.27
